createdAt,value
2016-07-25T00:00:20.500Z,17.99
2016-07-25T00:01:20.471Z,18.05
2016-07-25T00:02:20.460Z,18.05
2016-07-25T00:03:20.472Z,18.06
2016-07-25T00:04:20.466Z,18.03
2016-07-25T00:05:20.453Z,18.02
2016-07-25T00:06:20.449Z,18.08
2016-07-25T00:07:20.451Z,18.02
2016-07-25T00:08:20.453Z,18.01
2016-07-25T00:09:20.466Z,18.06
2016-07-25T00:10:20.458Z,17.99
2016-07-25T00:11:20.453Z,18.01
2016-07-25T00:12:20.450Z,18.08
2016-07-25T00:13:20.450Z,18.01
2016-07-25T00:14:20.453Z,18.06
2016-07-25T00:15:20.455Z,18.01
2016-07-25T00:16:20.472Z,17.98
2016-07-25T00:17:20.458Z,17.94
2016-07-25T00:18:20.440Z,18.01
2016-07-25T00:19:20.444Z,18.02
2016-07-25T00:20:20.431Z,18.03
2016-07-25T00:21:20.463Z,17.87
2016-07-25T00:22:20.437Z,17.96
2016-07-25T00:23:20.442Z,18.01
2016-07-25T00:24:20.449Z,17.94
2016-07-25T00:25:20.448Z,17.99
2016-07-25T00:26:20.435Z,17.96
2016-07-25T00:27:20.432Z,18.01
2016-07-25T00:28:20.443Z,17.92
2016-07-25T00:29:20.423Z,18.01
2016-07-25T00:30:20.412Z,17.95
2016-07-25T00:31:20.421Z,17.96
2016-07-25T00:32:20.432Z,17.99
2016-07-25T00:33:20.418Z,18.01
2016-07-25T00:34:20.419Z,18.01
2016-07-25T00:35:20.420Z,17.96
2016-07-25T00:36:21.149Z,17.98
2016-07-25T00:37:20.422Z,17.98
2016-07-25T00:38:20.404Z,17.95
2016-07-25T00:39:21.135Z,17.92
2016-07-25T00:40:20.423Z,17.92
2016-07-25T00:41:20.418Z,17.9
2016-07-25T00:42:20.406Z,17.92
2016-07-25T00:43:20.409Z,17.87
2016-07-25T00:44:20.400Z,17.88
2016-07-25T00:45:20.406Z,17.83
2016-07-25T00:46:20.403Z,17.86
2016-07-25T00:47:20.416Z,17.87
2016-07-25T00:48:20.429Z,17.87
2016-07-25T00:49:20.452Z,17.84
2016-07-25T00:50:20.398Z,17.88
2016-07-25T00:51:20.410Z,17.88
2016-07-25T00:52:20.400Z,17.87
2016-07-25T00:53:20.392Z,17.88
2016-07-25T00:54:20.397Z,17.87
2016-07-25T00:55:20.396Z,17.87
2016-07-25T00:56:20.396Z,17.87
2016-07-25T00:57:20.410Z,17.86
2016-07-25T00:58:20.384Z,17.95
2016-07-25T00:59:20.393Z,17.87
2016-07-25T01:00:20.395Z,17.88
2016-07-25T01:01:20.393Z,17.8
2016-07-25T01:02:20.382Z,17.9
2016-07-25T01:03:21.090Z,17.86
2016-07-25T01:04:20.393Z,17.9
2016-07-25T01:05:20.719Z,17.86
2016-07-25T01:06:20.377Z,17.86
2016-07-25T01:07:20.387Z,17.84
2016-07-25T01:08:20.380Z,17.87
2016-07-25T01:09:20.379Z,17.88
2016-07-25T01:10:20.377Z,17.88
2016-07-25T01:11:20.386Z,17.81
2016-07-25T01:12:20.388Z,17.88
2016-07-25T01:13:20.384Z,17.84
2016-07-25T01:14:23.405Z,17.88
2016-07-25T01:15:20.376Z,17.86
2016-07-25T01:16:20.374Z,17.79
2016-07-25T01:17:20.370Z,17.84
2016-07-25T01:18:20.367Z,17.84
2016-07-25T01:19:20.388Z,17.83
2016-07-25T01:20:20.378Z,17.77
2016-07-25T01:21:20.363Z,17.86
2016-07-25T01:22:20.358Z,17.83
2016-07-25T01:23:20.359Z,17.8
2016-07-25T01:24:21.081Z,17.84
2016-07-25T01:25:20.369Z,17.81
2016-07-25T01:26:20.356Z,17.84
2016-07-25T01:27:20.351Z,17.8
2016-07-25T01:28:20.392Z,17.83
2016-07-25T01:29:20.397Z,17.76
2016-07-25T01:30:20.352Z,17.76
2016-07-25T01:31:20.357Z,17.79
2016-07-25T01:32:20.344Z,17.8
2016-07-25T01:33:20.349Z,17.79
2016-07-25T01:34:20.369Z,17.83
2016-07-25T01:35:21.073Z,17.86
2016-07-25T01:36:20.348Z,17.79
2016-07-25T01:37:20.347Z,17.77
2016-07-25T01:38:20.350Z,17.8
2016-07-25T01:39:20.348Z,17.86
2016-07-25T01:40:20.344Z,17.79
2016-07-25T01:41:20.332Z,17.71
2016-07-25T01:42:20.340Z,17.73
2016-07-25T01:43:20.336Z,17.77
2016-07-25T01:44:20.365Z,17.76
2016-07-25T01:45:20.367Z,17.73
2016-07-25T01:46:21.056Z,17.66
2016-07-25T01:47:20.339Z,17.69
2016-07-25T01:48:20.341Z,17.71
2016-07-25T01:49:20.624Z,17.76
2016-07-25T01:50:20.335Z,17.76
2016-07-25T01:51:20.331Z,17.74
2016-07-25T01:52:20.334Z,17.73
2016-07-25T01:53:20.328Z,17.74
2016-07-25T01:54:20.325Z,17.68
2016-07-25T01:55:20.317Z,17.74
2016-07-25T01:56:20.332Z,17.68
2016-07-25T01:57:20.321Z,17.69
2016-07-25T01:58:20.327Z,17.66
2016-07-25T01:59:20.315Z,17.66
2016-07-25T02:00:20.324Z,17.68
2016-07-25T02:01:20.307Z,17.62
2016-07-25T02:02:20.333Z,17.6
2016-07-25T02:03:20.325Z,17.52
2016-07-25T02:04:20.320Z,17.55
2016-07-25T02:05:20.311Z,17.57
2016-07-25T02:06:20.304Z,17.58
2016-07-25T02:07:20.305Z,17.6
2016-07-25T02:08:20.318Z,17.55
2016-07-25T02:09:20.299Z,17.54
2016-07-25T02:10:20.320Z,17.55
2016-07-25T02:11:20.302Z,17.5
2016-07-25T02:12:20.303Z,17.52
2016-07-25T02:13:20.314Z,17.57
2016-07-25T02:14:20.297Z,17.58
2016-07-25T02:15:20.310Z,17.5
2016-07-25T02:16:20.292Z,17.43
2016-07-25T02:17:20.284Z,17.52
2016-07-25T02:18:20.284Z,17.52
2016-07-25T02:19:20.276Z,17.54
2016-07-25T02:20:20.292Z,17.47
2016-07-25T02:21:20.296Z,17.49
2016-07-25T02:22:20.284Z,17.46
2016-07-25T02:23:20.282Z,17.39
2016-07-25T02:24:20.284Z,17.3
2016-07-25T02:25:20.280Z,17.32
2016-07-25T02:26:20.269Z,17.3
2016-07-25T02:27:20.261Z,17.36
2016-07-25T02:28:20.265Z,17.3
2016-07-25T02:29:20.272Z,17.25
2016-07-25T02:30:20.268Z,17.25
2016-07-25T02:31:20.286Z,17.25
2016-07-25T02:32:20.259Z,17.22
2016-07-25T02:33:20.257Z,17.22
2016-07-25T02:34:20.270Z,17.24
2016-07-25T02:35:20.266Z,17.09
2016-07-25T02:36:20.269Z,17.12
2016-07-25T02:37:20.259Z,16.99
2016-07-25T02:38:20.259Z,17
2016-07-25T02:39:20.260Z,16.99
2016-07-25T02:40:20.244Z,16.91
2016-07-25T02:41:20.258Z,16.99
2016-07-25T02:42:20.261Z,17.05
2016-07-25T02:43:20.253Z,16.97
2016-07-25T02:44:20.252Z,16.94
2016-07-25T02:45:20.394Z,16.95
2016-07-25T02:46:20.267Z,16.92
2016-07-25T02:47:20.245Z,16.94
2016-07-25T02:48:20.261Z,16.95
2016-07-25T02:49:20.232Z,16.84
2016-07-25T02:50:20.240Z,16.8
2016-07-25T02:51:20.240Z,16.87
2016-07-25T02:52:20.240Z,16.81
2016-07-25T02:53:20.244Z,16.85
2016-07-25T02:54:20.260Z,16.82
2016-07-25T02:55:20.228Z,16.8
2016-07-25T02:56:20.224Z,16.76
2016-07-25T02:57:20.240Z,16.69
2016-07-25T02:58:20.229Z,16.72
2016-07-25T02:59:20.232Z,16.69
2016-07-25T03:00:20.221Z,16.7
2016-07-25T03:01:20.212Z,16.72
2016-07-25T03:02:20.218Z,16.72
2016-07-25T03:03:20.216Z,16.72
2016-07-25T03:04:20.218Z,16.72
2016-07-25T03:05:20.210Z,16.72
2016-07-25T03:06:20.201Z,16.72
2016-07-25T03:07:20.205Z,16.69
2016-07-25T03:08:20.292Z,16.65
2016-07-25T03:09:20.374Z,16.69
2016-07-25T03:10:20.358Z,16.67
2016-07-25T03:11:20.198Z,16.66
2016-07-25T03:12:20.238Z,16.7
2016-07-25T03:13:20.252Z,16.69
2016-07-25T03:14:20.180Z,16.66
2016-07-25T03:15:20.186Z,16.7
2016-07-25T03:16:20.176Z,16.73
2016-07-25T03:17:20.183Z,16.67
2016-07-25T03:18:20.185Z,16.74
2016-07-25T03:19:20.195Z,16.67
2016-07-25T03:20:20.180Z,16.72
2016-07-25T03:21:20.170Z,16.77
2016-07-25T03:22:20.165Z,16.77
2016-07-25T03:23:20.180Z,16.76
2016-07-25T03:24:20.165Z,16.77
2016-07-25T03:25:20.168Z,16.8
2016-07-25T03:26:20.165Z,16.85
2016-07-25T03:27:20.167Z,16.85
2016-07-25T03:28:20.159Z,16.85
2016-07-25T03:29:20.164Z,16.85
2016-07-25T03:30:20.165Z,16.88
2016-07-25T03:31:20.165Z,16.91
2016-07-25T03:32:20.154Z,16.95
2016-07-25T03:33:20.156Z,16.91
2016-07-25T03:34:20.149Z,17.1
2016-07-25T03:35:20.150Z,17.03
2016-07-25T03:36:20.138Z,17.02
2016-07-25T03:37:20.145Z,17.07
2016-07-25T03:38:20.148Z,17.06
2016-07-25T03:39:20.143Z,17.1
2016-07-25T03:40:20.146Z,17.17
2016-07-25T03:41:20.153Z,17.21
2016-07-25T03:42:20.346Z,17.25
2016-07-25T03:43:20.418Z,17.21
2016-07-25T03:44:20.272Z,17.27
2016-07-25T03:45:20.276Z,17.22
2016-07-25T03:46:20.282Z,17.3
2016-07-25T03:47:20.278Z,17.25
2016-07-25T03:48:20.391Z,17.22
2016-07-25T03:49:20.492Z,17.35
2016-07-25T03:50:20.391Z,17.32
2016-07-25T03:51:20.407Z,17.43
2016-07-25T03:52:20.273Z,17.32
2016-07-25T03:53:20.430Z,17.32
2016-07-25T03:54:20.399Z,17.45
2016-07-25T03:55:20.258Z,17.47
2016-07-25T03:56:20.975Z,17.47
2016-07-25T03:57:20.263Z,17.46
2016-07-25T03:58:20.254Z,17.55
2016-07-25T03:59:20.972Z,17.52
2016-07-25T04:00:20.253Z,17.5
2016-07-25T04:01:20.419Z,17.63
2016-07-25T04:02:20.370Z,17.45
2016-07-25T04:03:20.390Z,17.58
2016-07-25T04:04:20.251Z,17.57
2016-07-25T04:05:20.379Z,17.6
2016-07-25T04:06:21.086Z,17.52
2016-07-25T04:07:20.380Z,17.58
2016-07-25T04:08:20.238Z,17.73
2016-07-25T04:09:20.388Z,17.66
2016-07-25T04:10:20.377Z,17.66
2016-07-25T04:11:20.375Z,17.68
2016-07-25T04:12:20.233Z,17.71
2016-07-25T04:13:20.235Z,17.69
2016-07-25T04:14:20.363Z,17.68
2016-07-25T04:15:20.240Z,17.79
2016-07-25T04:16:20.232Z,17.79
2016-07-25T04:17:20.367Z,17.76
2016-07-25T04:18:20.237Z,17.76
2016-07-25T04:19:20.357Z,17.76
2016-07-25T04:20:20.369Z,17.81
2016-07-25T04:21:20.359Z,17.92
2016-07-25T04:22:20.369Z,17.79
2016-07-25T04:23:20.220Z,17.83
2016-07-25T04:24:20.353Z,17.86
2016-07-25T04:25:20.211Z,17.84
2016-07-25T04:26:20.218Z,17.86
2016-07-25T04:27:20.207Z,17.84
2016-07-25T04:28:20.213Z,17.87
2016-07-25T04:29:20.209Z,17.83
2016-07-25T04:30:20.211Z,17.9
2016-07-25T04:31:20.207Z,17.96
2016-07-25T04:32:20.206Z,17.95
2016-07-25T04:33:20.222Z,17.98
2016-07-25T04:34:20.353Z,17.96
2016-07-25T04:35:20.215Z,17.88
2016-07-25T04:36:20.197Z,17.99
2016-07-25T04:37:20.206Z,18.02
2016-07-25T04:38:20.200Z,18.02
2016-07-25T04:39:20.196Z,18.08
2016-07-25T04:40:20.203Z,18.02
2016-07-25T04:41:20.213Z,18.06
2016-07-25T04:42:20.335Z,18.17
2016-07-25T04:43:20.246Z,18.17
2016-07-25T04:44:20.336Z,18.19
2016-07-25T04:45:20.246Z,18.16
2016-07-25T04:46:20.244Z,18.19
2016-07-25T04:47:20.254Z,18.16
2016-07-25T04:48:20.251Z,18.34
2016-07-25T04:49:20.299Z,18.2
2016-07-25T04:50:20.241Z,18.19
2016-07-25T04:51:20.206Z,18.26
2016-07-25T04:52:20.200Z,18.29
2016-07-25T04:53:20.202Z,18.34
2016-07-25T04:54:20.340Z,18.26
2016-07-25T04:55:20.220Z,18.31
2016-07-25T04:56:20.234Z,18.38
2016-07-25T04:57:20.237Z,18.38
2016-07-25T04:58:20.231Z,18.38
2016-07-25T04:59:20.238Z,18.35
2016-07-25T05:00:20.231Z,18.38
2016-07-25T05:01:20.233Z,18.39
2016-07-25T05:02:20.232Z,18.44
2016-07-25T05:03:20.238Z,18.47
2016-07-25T05:04:20.326Z,18.5
2016-07-25T05:05:20.902Z,18.51
2016-07-25T05:06:20.195Z,18.5
2016-07-25T05:07:20.241Z,18.65
2016-07-25T05:08:20.213Z,18.65
2016-07-25T05:09:20.353Z,18.63
2016-07-25T05:10:20.232Z,18.71
2016-07-25T05:11:20.220Z,18.69
2016-07-25T05:12:20.226Z,18.75
2016-07-25T05:13:20.227Z,18.66
2016-07-25T05:14:20.216Z,18.79
2016-07-25T05:15:20.218Z,18.75
2016-07-25T05:16:20.299Z,18.81
2016-07-25T05:17:20.195Z,18.76
2016-07-25T05:18:20.188Z,18.86
2016-07-25T05:19:20.186Z,18.89
2016-07-25T05:20:21.617Z,18.96
2016-07-25T05:21:20.203Z,18.93
2016-07-25T05:22:20.209Z,19
2016-07-25T05:23:20.207Z,19.06
2016-07-25T05:24:20.213Z,19.17
2016-07-25T05:25:20.204Z,19.2
2016-07-25T05:26:20.210Z,19.24
2016-07-25T05:27:20.206Z,19.3
2016-07-25T05:28:20.207Z,19.3
2016-07-25T05:29:20.158Z,19.32
2016-07-25T05:30:20.162Z,19.3
2016-07-25T05:31:20.177Z,19.32
2016-07-25T05:32:20.187Z,19.32
2016-07-25T05:33:20.196Z,19.38
2016-07-25T05:34:20.208Z,19.32
2016-07-25T05:35:20.206Z,19.3
2016-07-25T05:36:20.203Z,19.42
2016-07-25T05:37:20.204Z,19.47
2016-07-25T05:38:20.205Z,19.55
2016-07-25T05:39:20.197Z,19.53
2016-07-25T05:40:20.195Z,19.63
2016-07-25T05:41:20.151Z,19.7
2016-07-25T05:42:20.145Z,19.68
2016-07-25T05:43:20.169Z,19.71
2016-07-25T05:44:20.156Z,19.74
2016-07-25T05:45:20.144Z,19.85
2016-07-25T05:46:20.149Z,19.85
2016-07-25T05:47:20.273Z,19.9
2016-07-25T05:48:20.139Z,19.83
2016-07-25T05:49:20.194Z,19.82
2016-07-25T05:50:20.148Z,19.9
2016-07-25T05:51:20.136Z,20.01
2016-07-25T05:52:20.155Z,20.01
2016-07-25T05:53:20.132Z,20.04
2016-07-25T05:54:20.139Z,20.15
2016-07-25T05:55:20.134Z,20.11
2016-07-25T05:56:20.269Z,20.2
2016-07-25T05:57:20.141Z,20.26
2016-07-25T05:58:20.277Z,20.29
2016-07-25T05:59:20.142Z,20.4
2016-07-25T06:00:20.284Z,20.49
2016-07-25T06:01:20.149Z,20.42
2016-07-25T06:02:20.142Z,20.48
2016-07-25T06:03:20.273Z,20.58
2016-07-25T06:04:20.155Z,20.57
2016-07-25T06:05:20.139Z,20.72
2016-07-25T06:06:20.306Z,20.81
2016-07-25T06:07:20.271Z,20.93
2016-07-25T06:08:20.145Z,20.86
2016-07-25T06:09:20.292Z,21.06
2016-07-25T06:10:20.143Z,20.97
2016-07-25T06:11:20.136Z,21.08
2016-07-25T06:12:20.137Z,21.22
2016-07-25T06:13:20.135Z,21.12
2016-07-25T06:14:20.275Z,21.16
2016-07-25T06:15:20.274Z,21.22
2016-07-25T06:16:20.141Z,21.28
2016-07-25T06:17:20.147Z,21.38
2016-07-25T06:18:20.141Z,21.37
2016-07-25T06:19:20.292Z,21.33
2016-07-25T06:20:20.261Z,21.38
2016-07-25T06:21:20.270Z,21.52
2016-07-25T06:22:20.284Z,21.66
2016-07-25T06:23:20.153Z,21.66
2016-07-25T06:24:20.155Z,21.8
2016-07-25T06:25:20.148Z,21.77
2016-07-25T06:26:20.142Z,21.97
2016-07-25T06:27:20.289Z,21.97
2016-07-25T06:28:20.153Z,22.02
2016-07-25T06:29:20.158Z,22.04
2016-07-25T06:30:20.155Z,22.08
2016-07-25T06:31:20.282Z,22.22
2016-07-25T06:32:20.254Z,22.23
2016-07-25T06:33:20.264Z,22.26
2016-07-25T06:34:20.255Z,22.31
2016-07-25T06:35:20.272Z,22.36
2016-07-25T06:36:20.277Z,22.41
2016-07-25T06:37:20.317Z,22.48
2016-07-25T06:38:20.312Z,22.39
2016-07-25T06:39:20.294Z,22.57
2016-07-25T06:40:20.299Z,22.51
2016-07-25T06:41:20.174Z,22.54
2016-07-25T06:42:20.179Z,22.66
2016-07-25T06:43:20.183Z,22.64
2016-07-25T06:44:20.273Z,22.73
2016-07-25T06:45:20.243Z,22.75
2016-07-25T06:46:20.292Z,22.81
2016-07-25T06:47:20.300Z,22.84
2016-07-25T06:48:20.298Z,22.91
2016-07-25T06:49:20.327Z,23.01
2016-07-25T06:50:20.290Z,23.01
2016-07-25T06:51:20.288Z,22.96
2016-07-25T06:52:20.310Z,23.04
2016-07-25T06:53:20.313Z,22.84
2016-07-25T06:54:20.307Z,22.99
2016-07-25T06:55:20.304Z,22.99
2016-07-25T06:56:20.225Z,23
2016-07-25T06:57:20.235Z,23.07
2016-07-25T06:58:20.240Z,23.12
2016-07-25T06:59:20.236Z,23.1
2016-07-25T07:00:20.246Z,23.18
2016-07-25T07:01:20.291Z,23.19
2016-07-25T07:02:20.270Z,23.19
2016-07-25T07:03:20.986Z,23.16
2016-07-25T07:05:20.290Z,23.28
2016-07-25T07:06:20.298Z,23.25
2016-07-25T07:07:20.340Z,23.26
2016-07-25T07:08:20.220Z,23.26
2016-07-25T07:09:20.215Z,23.29
2016-07-25T07:10:20.236Z,23.19
2016-07-25T07:11:20.278Z,23.26
2016-07-25T07:12:20.289Z,23.19
2016-07-25T07:13:20.259Z,23.21
2016-07-25T07:14:20.262Z,23.28
2016-07-25T07:15:20.266Z,23.35
2016-07-25T07:16:20.267Z,23.29
2016-07-25T07:17:20.275Z,23.29
2016-07-25T07:18:20.286Z,23.38
2016-07-25T07:19:20.331Z,23.42
2016-07-25T07:20:20.304Z,23.47
2016-07-25T07:21:20.278Z,23.47
2016-07-25T07:22:20.282Z,23.44
2016-07-25T07:23:20.297Z,23.45
2016-07-25T07:24:20.309Z,23.55
2016-07-25T07:25:20.301Z,23.6
2016-07-25T07:26:20.315Z,23.62
2016-07-25T07:27:20.296Z,23.62
2016-07-25T07:28:20.255Z,23.7
2016-07-25T07:29:20.247Z,23.67
2016-07-25T07:30:20.266Z,23.74
2016-07-25T07:31:20.975Z,23.81
2016-07-25T07:32:20.295Z,23.85
2016-07-25T07:33:20.263Z,23.85
2016-07-25T07:34:20.266Z,23.92
2016-07-25T07:35:20.278Z,23.92
2016-07-25T07:36:20.287Z,23.96
2016-07-25T07:37:20.302Z,24.03
2016-07-25T07:38:20.294Z,23.96
2016-07-25T07:39:20.303Z,24.04
2016-07-25T07:40:20.308Z,24.17
2016-07-25T07:41:20.319Z,24.21
2016-07-25T07:42:20.326Z,24.21
2016-07-25T07:43:20.329Z,24.27
2016-07-25T07:44:20.346Z,24.33
2016-07-25T07:45:20.345Z,24.33
2016-07-25T07:46:20.245Z,24.3
2016-07-25T07:47:20.255Z,24.33
2016-07-25T07:48:20.272Z,24.4
2016-07-25T07:49:20.319Z,24.4
2016-07-25T07:50:20.280Z,24.58
2016-07-25T07:51:20.295Z,24.64
2016-07-25T07:52:20.293Z,24.7
2016-07-25T07:53:20.300Z,24.8
2016-07-25T07:54:20.308Z,24.93
2016-07-25T07:55:20.318Z,24.92
2016-07-25T07:56:20.321Z,25.02
2016-07-25T07:57:20.331Z,25.08
2016-07-25T07:58:20.672Z,25.19
2016-07-25T07:59:20.312Z,25.11
2016-07-25T08:00:20.315Z,25.26
2016-07-25T08:01:20.339Z,25.17
2016-07-25T08:02:20.978Z,25.26
2016-07-25T08:04:20.334Z,25.32
2016-07-25T08:05:21.046Z,25.33
2016-07-25T08:06:20.290Z,25.49
2016-07-25T08:07:20.304Z,25.45
2016-07-25T08:08:20.313Z,25.54
2016-07-25T08:09:20.330Z,25.59
2016-07-25T08:10:20.305Z,25.59
2016-07-25T08:11:20.291Z,25.75
2016-07-25T08:12:20.304Z,25.79
2016-07-25T08:13:20.314Z,25.84
2016-07-25T08:14:20.304Z,25.97
2016-07-25T08:15:20.337Z,26.09
2016-07-25T08:16:20.313Z,26.12
2016-07-25T08:17:20.333Z,26.37
2016-07-25T08:18:20.355Z,26.41
2016-07-25T08:19:20.344Z,26.5
2016-07-25T08:20:20.350Z,26.54
2016-07-25T08:21:21.076Z,26.45
2016-07-25T08:22:21.109Z,26.5
2016-07-25T08:23:20.315Z,26.49
2016-07-25T08:24:20.326Z,26.61
2016-07-25T08:25:20.327Z,26.68
2016-07-25T08:26:20.319Z,26.68
2016-07-25T08:27:20.340Z,26.75
2016-07-25T08:28:20.325Z,26.79
2016-07-25T08:29:20.329Z,26.84
2016-07-25T08:30:20.337Z,26.91
2016-07-25T08:31:20.352Z,26.89
2016-07-25T08:32:20.352Z,26.87
2016-07-25T08:33:20.356Z,26.9
2016-07-25T08:34:20.362Z,26.89
2016-07-25T08:35:20.357Z,26.87
2016-07-25T08:36:20.368Z,26.89
2016-07-25T08:37:20.389Z,26.87
2016-07-25T08:38:20.397Z,27.01
2016-07-25T08:39:20.392Z,27.12
2016-07-25T08:40:20.393Z,27.23
2016-07-25T08:41:20.425Z,27.27
2016-07-25T08:42:20.412Z,27.28
2016-07-25T08:43:20.399Z,27.33
2016-07-25T08:44:20.412Z,27.27
2016-07-25T08:45:20.481Z,27.13
2016-07-25T08:46:20.417Z,27
2016-07-25T08:47:20.420Z,26.93
2016-07-25T08:48:20.422Z,26.89
2016-07-25T08:49:20.433Z,26.89
2016-07-25T08:50:20.438Z,26.9
2016-07-25T08:51:20.440Z,26.94
2016-07-25T08:52:20.447Z,26.89
2016-07-25T08:53:20.449Z,26.82
2016-07-25T08:54:20.453Z,26.81
2016-07-25T08:55:20.462Z,26.78
2016-07-25T08:56:20.466Z,26.78
2016-07-25T08:57:20.470Z,26.78
2016-07-25T08:58:20.479Z,26.81
2016-07-25T08:59:20.480Z,26.64
2016-07-25T09:00:20.479Z,26.5
2016-07-25T09:01:20.520Z,26.41
2016-07-25T09:02:20.492Z,26.37
2016-07-25T09:03:20.498Z,26.27
2016-07-25T09:04:20.505Z,26.15
2016-07-25T09:05:20.514Z,26.16
2016-07-25T09:06:20.516Z,26.17
2016-07-25T09:07:20.521Z,26.19
2016-07-25T09:08:20.523Z,26.27
2016-07-25T09:09:20.536Z,26.26
2016-07-25T09:10:20.532Z,26.22
2016-07-25T09:11:20.538Z,26.26
2016-07-25T09:12:20.551Z,26.15
2016-07-25T09:13:20.552Z,26.15
2016-07-25T09:14:20.555Z,26.23
2016-07-25T09:15:20.547Z,26.27
2016-07-25T09:16:20.555Z,26.3
2016-07-25T09:17:20.562Z,26.23
2016-07-25T09:18:20.583Z,26.09
2016-07-25T09:19:20.578Z,26.31
2016-07-25T09:20:20.587Z,26.26
2016-07-25T09:21:20.581Z,26.3
2016-07-25T09:22:20.645Z,26.22
2016-07-25T09:23:20.586Z,26.2
2016-07-25T09:24:21.313Z,26.23
2016-07-25T09:25:21.358Z,26.22
2016-07-25T09:26:20.790Z,26.03
2016-07-25T09:27:20.615Z,26.04
2016-07-25T09:28:20.631Z,25.99
2016-07-25T09:29:20.626Z,26.01
2016-07-25T09:30:20.631Z,26.04
2016-07-25T09:31:20.624Z,26.06
2016-07-25T09:32:20.624Z,26.01
2016-07-25T09:33:20.630Z,26.03
2016-07-25T09:34:20.642Z,26.15
2016-07-25T09:35:20.635Z,26.12
2016-07-25T09:36:20.644Z,26.23
2016-07-25T09:37:20.653Z,26.31
2016-07-25T09:38:20.653Z,26.31
2016-07-25T09:39:20.659Z,26.39
2016-07-25T09:40:20.667Z,26.41
2016-07-25T09:41:20.668Z,26.32
2016-07-25T09:42:20.671Z,26.23
2016-07-25T09:43:21.385Z,26.04
2016-07-25T09:44:20.685Z,26.04
2016-07-25T09:45:20.689Z,26
2016-07-25T09:46:20.689Z,25.91
2016-07-25T09:47:20.691Z,25.86
2016-07-25T09:48:20.692Z,25.93
2016-07-25T09:49:20.708Z,25.94
2016-07-25T09:50:20.718Z,26.09
2016-07-25T09:51:20.708Z,26.23
2016-07-25T09:52:20.719Z,26.2
2016-07-25T09:53:21.420Z,26.3
2016-07-25T09:54:20.727Z,26.31
2016-07-25T09:55:20.729Z,26.32
2016-07-25T09:56:20.727Z,26
2016-07-25T09:57:20.745Z,26.07
2016-07-25T09:58:20.742Z,25.93
2016-07-25T09:59:20.739Z,26
2016-07-25T10:00:20.751Z,26.06
2016-07-25T10:01:20.764Z,26.15
2016-07-25T10:02:20.763Z,26.15
2016-07-25T10:03:20.753Z,26.16
2016-07-25T10:04:20.762Z,26.07
2016-07-25T10:05:20.764Z,26.06
2016-07-25T10:06:20.767Z,25.99
2016-07-25T10:07:20.787Z,26.11
2016-07-25T10:08:20.781Z,26.06
2016-07-25T10:09:20.787Z,26.04
2016-07-25T10:10:20.799Z,26.04
2016-07-25T10:11:20.793Z,26.15
2016-07-25T10:12:20.806Z,26.09
2016-07-25T10:13:20.796Z,26.12
2016-07-25T10:14:20.815Z,26.15
2016-07-25T10:15:20.810Z,26.11
2016-07-25T10:16:20.825Z,26.16
2016-07-25T10:17:20.832Z,26.12
2016-07-25T10:18:20.822Z,26.12
2016-07-25T10:19:20.829Z,26.17
2016-07-25T10:20:20.845Z,26.17
2016-07-25T10:21:20.844Z,26.26
2016-07-25T10:22:20.847Z,26.12
2016-07-25T10:23:20.846Z,26.17
2016-07-25T10:24:20.857Z,26.22
2016-07-25T10:25:20.853Z,26.31
2016-07-25T10:26:20.869Z,26.31
2016-07-25T10:27:20.866Z,26.47
2016-07-25T10:28:20.857Z,26.45
2016-07-25T10:29:20.866Z,26.49
2016-07-25T10:30:20.882Z,26.47
2016-07-25T10:31:20.884Z,26.5
2016-07-25T10:32:21.614Z,26.49
2016-07-25T10:33:21.602Z,26.5
2016-07-25T10:34:20.890Z,26.5
2016-07-25T10:35:20.888Z,26.45
2016-07-25T10:36:20.896Z,26.44
2016-07-25T10:37:20.904Z,26.24
2016-07-25T10:38:20.912Z,26.2
2016-07-25T10:39:20.919Z,25.99
2016-07-25T10:40:20.923Z,26.17
2016-07-25T10:41:20.925Z,26.3
2016-07-25T10:42:20.925Z,26.32
2016-07-25T10:43:20.929Z,26.38
2016-07-25T10:44:20.932Z,26.47
2016-07-25T10:45:20.939Z,26.37
2016-07-25T10:46:20.941Z,26.34
2016-07-25T10:47:20.949Z,26.45
2016-07-25T10:48:20.957Z,26.5
2016-07-25T10:49:21.004Z,26.45
2016-07-25T10:50:20.976Z,26.49
2016-07-25T10:51:20.966Z,26.53
2016-07-25T10:52:20.973Z,26.44
2016-07-25T10:53:20.979Z,26.44
2016-07-25T10:54:20.979Z,26.42
2016-07-25T10:55:20.999Z,26.41
2016-07-25T10:56:20.979Z,26.37
2016-07-25T10:57:20.992Z,26.37
2016-07-25T10:58:20.993Z,26.41
2016-07-25T10:59:20.997Z,26.37
2016-07-25T11:00:21.001Z,26.35
2016-07-25T11:01:21.005Z,26.3
2016-07-25T11:02:21.016Z,26.32
2016-07-25T11:03:21.030Z,26.3
2016-07-25T11:04:21.031Z,26.23
2016-07-25T11:05:21.048Z,26.3
2016-07-25T11:06:21.064Z,26.24
2016-07-25T11:07:21.052Z,26.32
2016-07-25T11:08:21.040Z,26.12
2016-07-25T11:09:21.057Z,26.16
2016-07-25T11:10:21.060Z,26.06
2016-07-25T11:11:21.072Z,26.16
2016-07-25T11:12:21.066Z,26.12
2016-07-25T11:13:21.071Z,26.26
2016-07-25T11:14:21.069Z,26.12
2016-07-25T11:15:21.075Z,26.17
2016-07-25T11:16:21.075Z,26.19
2016-07-25T11:17:21.091Z,26.01
2016-07-25T11:18:21.092Z,26.07
2016-07-25T11:19:21.107Z,26.04
2016-07-25T11:20:21.112Z,26.03
2016-07-25T11:21:21.123Z,25.91
2016-07-25T11:22:21.104Z,25.91
2016-07-25T11:23:21.112Z,25.94
2016-07-25T11:24:21.108Z,25.96
2016-07-25T11:25:21.127Z,25.89
2016-07-25T11:26:21.127Z,25.93
2016-07-25T11:27:21.133Z,25.89
2016-07-25T11:28:21.128Z,25.84
2016-07-25T11:29:21.145Z,25.88
2016-07-25T11:30:21.148Z,25.82
2016-07-25T11:31:21.141Z,25.85
2016-07-25T11:32:21.153Z,25.91
2016-07-25T11:33:21.167Z,25.96
2016-07-25T11:34:21.156Z,25.94
2016-07-25T11:35:21.168Z,26.06
2016-07-25T11:36:21.183Z,25.97
2016-07-25T11:37:21.185Z,25.96
2016-07-25T11:38:21.176Z,25.97
2016-07-25T11:39:21.175Z,26.04
2016-07-25T11:40:21.179Z,26.22
2016-07-25T11:41:21.185Z,26.19
2016-07-25T11:42:21.198Z,26.26
2016-07-25T11:43:21.200Z,26.35
2016-07-25T11:44:21.197Z,26.38
2016-07-25T11:45:21.203Z,26.35
2016-07-25T11:46:21.212Z,26.37
2016-07-25T11:47:21.207Z,26.38
2016-07-25T11:48:21.216Z,26.31
2016-07-25T11:49:21.223Z,26.27
2016-07-25T11:50:21.226Z,26.22
2016-07-25T11:51:21.241Z,26.26
2016-07-25T11:52:21.228Z,26.32
2016-07-25T11:53:21.237Z,26.23
2016-07-25T11:54:21.235Z,26.24
2016-07-25T11:55:21.242Z,26.2
2016-07-25T11:56:21.251Z,26.07
2016-07-25T11:57:21.268Z,26.04
2016-07-25T11:58:21.267Z,26
2016-07-25T11:59:21.281Z,25.97
2016-07-25T12:00:21.269Z,25.85
2016-07-25T12:01:21.277Z,25.79
2016-07-25T12:02:21.277Z,25.78
2016-07-25T12:03:21.275Z,25.76
2016-07-25T12:04:21.291Z,25.74
2016-07-25T12:05:22.009Z,25.69
2016-07-25T12:06:21.307Z,25.76
2016-07-25T12:07:21.313Z,25.76
2016-07-25T12:08:21.298Z,25.82
2016-07-25T12:09:21.303Z,25.79
2016-07-25T12:10:21.307Z,25.89
2016-07-25T12:11:21.307Z,25.93
2016-07-25T12:12:21.313Z,25.96
2016-07-25T12:13:21.339Z,25.93
2016-07-25T12:14:21.326Z,25.84
2016-07-25T12:15:21.334Z,25.85
2016-07-25T12:16:21.337Z,25.84
2016-07-25T12:17:21.339Z,25.94
2016-07-25T12:18:21.343Z,25.94
2016-07-25T12:19:21.365Z,26.09
2016-07-25T12:20:21.364Z,26.06
2016-07-25T12:21:21.372Z,26.16
2016-07-25T12:22:21.365Z,26.15
2016-07-25T12:23:21.375Z,26.22
2016-07-25T12:24:21.381Z,26.04
2016-07-25T12:25:21.383Z,26.06
2016-07-25T12:26:21.374Z,26.01
2016-07-25T12:27:22.096Z,26.15
2016-07-25T12:28:22.110Z,26.19
2016-07-25T12:29:21.407Z,26.17
2016-07-25T12:30:21.408Z,26.15
2016-07-25T12:31:21.415Z,26.15
2016-07-25T12:32:21.417Z,26.09
2016-07-25T12:33:21.413Z,26.12
2016-07-25T12:34:21.412Z,26.19
2016-07-25T12:35:21.419Z,26.24
2016-07-25T12:36:21.437Z,26.17
2016-07-25T12:37:21.457Z,26.23
2016-07-25T12:38:21.428Z,26.34
2016-07-25T12:39:21.452Z,26.35
2016-07-25T12:40:21.462Z,26.38
2016-07-25T12:41:21.452Z,26.34
2016-07-25T12:42:21.480Z,26.39
2016-07-25T12:43:21.462Z,26.44
2016-07-25T12:44:21.473Z,26.5
2016-07-25T12:45:21.474Z,26.5
2016-07-25T12:46:21.471Z,26.53
2016-07-25T12:47:21.476Z,26.6
2016-07-25T12:48:21.483Z,26.63
2016-07-25T12:49:21.544Z,26.57
2016-07-25T12:50:21.481Z,26.49
2016-07-25T12:51:21.493Z,26.6
2016-07-25T12:52:21.509Z,26.63
2016-07-25T12:53:21.555Z,26.6
2016-07-25T12:54:21.518Z,26.63
2016-07-25T12:55:21.509Z,26.76
2016-07-25T12:56:21.525Z,26.75
2016-07-25T12:57:21.548Z,26.72